Time;durP1;ratioP1;P1;durP2;ratioP2;P2;SDS_P1;SDS_P2;PMS_P1;PMS_P2;Temp;Humidity;BMP_temperature;BMP_pressure;BME280_temperature;BME280_humidity;BME280_pressure;Samples;Min_cycle;Max_cycle;Signal;HPM_P1;HPM_P2
2023/03/09 00:02:21;;;;;;;48.60;34.20;;;2.70;99.90;;;;;;5096542;28;20457;-71
2023/03/09 00:04:48;;;;;;;44.57;34.87;;;2.80;99.90;;;;;;5089780;28;20469;-72
2023/03/09 00:07:15;;;;;;;48.00;35.17;;;2.70;99.90;;;;;;5084541;28;20454;-70
2023/03/09 00:09:42;;;;;;;48.13;34.43;;;2.80;99.90;;;;;;5095339;28;20462;-72
2023/03/09 00:12:09;;;;;;;47.50;36.23;;;2.70;99.90;;;;;;5088577;28;20895;-71
2023/03/09 00:14:36;;;;;;;47.07;33.10;;;2.80;99.90;;;;;;5086768;28;20897;-71
2023/03/09 00:17:04;;;;;;;47.40;35.33;;;2.90;99.90;;;;;;5085760;28;20489;-72
2023/03/09 00:19:30;;;;;;;89.57;37.73;;;2.90;99.90;;;;;;5093179;28;20526;-71
2023/03/09 00:21:58;;;;;;;50.67;35.50;;;3.00;99.90;;;;;;5093390;28;20460;-72
2023/03/09 00:24:27;;;;;;;51.23;36.60;;;2.70;99.90;;;;;;5096125;28;20477;-71
2023/03/09 00:26:56;;;;;;;46.53;34.70;;;2.70;99.90;;;;;;5091994;28;20469;-71
2023/03/09 00:29:23;;;;;;;51.87;35.60;;;2.80;99.90;;;;;;5096365;28;20457;-71
2023/03/09 00:31:51;;;;;;;37.77;31.80;;;2.90;99.90;;;;;;5094818;28;20460;-71
2023/03/09 00:34:20;;;;;;;44.33;33.73;;;3.10;99.90;;;;;;5093474;28;20467;-72
2023/03/09 00:36:47;;;;;;;47.47;34.80;;;3.10;99.90;;;;;;5098451;28;20827;-71
2023/03/09 00:39:16;;;;;;;47.50;36.20;;;3.10;99.90;;;;;;5091653;28;20461;-73
2023/03/09 00:41:43;;;;;;;51.30;35.80;;;3.10;99.90;;;;;;5101446;28;20453;-72
2023/03/09 00:44:13;;;;;;;52.40;34.20;;;3.10;99.90;;;;;;5094225;28;20461;-72
2023/03/09 00:46:42;;;;;;;45.90;33.83;;;3.10;99.90;;;;;;5095023;28;20457;-71
2023/03/09 00:49:12;;;;;;;47.23;35.67;;;3.00;99.90;;;;;;5100624;28;20465;-71
2023/03/09 00:51:45;;;;;;;54.23;34.97;;;3.00;99.90;;;;;;5101248;28;20458;-71
2023/03/09 00:54:14;;;;;;;50.20;33.90;;;2.90;99.90;;;;;;5091824;28;20980;-71
2023/03/09 00:56:41;;;;;;;49.17;35.40;;;3.00;99.90;;;;;;5092971;28;20489;-72
2023/03/09 00:59:08;;;;;;;45.93;33.97;;;2.90;99.90;;;;;;5088545;28;20539;-72
2023/03/09 01:01:35;;;;;;;51.37;35.33;;;3.00;99.90;;;;;;5093735;28;21147;-71
2023/03/09 01:04:03;;;;;;;54.43;33.17;;;3.00;99.90;;;;;;5091878;28;20474;-72
2023/03/09 01:06:29;;;;;;;43.67;33.27;;;2.90;99.90;;;;;;5093433;28;20462;-72
2023/03/09 01:08:58;;;;;;;53.03;35.83;;;3.00;99.90;;;;;;5091878;28;20461;-72
2023/03/09 01:11:25;;;;;;;52.07;33.73;;;3.00;99.90;;;;;;5088664;28;20569;-71
2023/03/09 01:13:53;;;;;;;45.33;34.20;;;3.10;99.90;;;;;;5094829;28;20476;-71
2023/03/09 01:16:20;;;;;;;48.13;32.97;;;3.10;99.90;;;;;;5092846;28;21257;-71
2023/03/09 01:18:48;;;;;;;53.07;33.90;;;3.10;99.90;;;;;;5089970;28;20554;-72
2023/03/09 01:21:15;;;;;;;42.17;33.27;;;3.20;99.90;;;;;;5096131;28;20472;-72
2023/03/09 01:23:42;;;;;;;51.00;34.03;;;3.20;99.90;;;;;;5093938;28;20465;-71
2023/03/09 01:26:11;;;;;;;47.53;35.43;;;3.20;99.90;;;;;;5088022;28;20462;-72
2023/03/09 01:28:38;;;;;;;42.33;32.20;;;3.20;99.90;;;;;;5089952;28;20461;-71
2023/03/09 01:31:08;;;;;;;45.27;34.17;;;3.20;99.90;;;;;;5094479;28;20474;-72
2023/03/09 01:33:36;;;;;;;46.20;34.50;;;3.20;99.90;;;;;;5088381;28;20493;-72
2023/03/09 01:36:07;;;;;;;53.83;33.63;;;3.20;99.90;;;;;;5091138;28;20849;-71
2023/03/09 01:38:34;;;;;;;49.67;35.60;;;3.20;99.90;;;;;;5092420;28;20496;-72
2023/03/09 01:41:02;;;;;;;51.33;35.87;;;3.20;99.90;;;;;;5097699;28;20461;-71
2023/03/09 01:43:39;;;;;;;44.97;31.13;;;3.20;99.90;;;;;;5097763;28;20490;-71
2023/03/09 01:46:32;;;;;;;49.20;34.43;;;3.00;99.90;;;;;;5098602;28;20557;-70
2023/03/09 01:49:06;;;;;;;46.47;31.67;;;2.90;99.90;;;;;;5087557;28;20462;-71
2023/03/09 01:51:37;;;;;;;48.70;34.40;;;2.80;99.90;;;;;;5098279;28;20464;-72
2023/03/09 01:54:06;;;;;;;47.93;34.20;;;2.80;99.90;;;;;;5091247;28;20542;-70
2023/03/09 01:56:36;;;;;;;50.03;35.30;;;2.80;99.90;;;;;;5086237;28;20937;-70
2023/03/09 01:59:07;;;;;;;49.27;33.93;;;2.70;99.90;;;;;;5087509;28;20852;-71
2023/03/09 02:01:36;;;;;;;51.60;35.00;;;2.70;99.90;;;;;;5091831;28;20462;-72
2023/03/09 02:04:06;;;;;;;53.27;34.97;;;2.60;99.90;;;;;;5100331;28;20462;-70
2023/03/09 02:06:33;;;;;;;60.03;35.63;;;2.60;99.90;;;;;;5089055;28;20476;-71
2023/03/09 02:09:12;;;;;;;55.00;33.67;;;2.50;99.90;;;;;;5091901;28;20462;-71
2023/03/09 02:11:40;;;;;;;57.43;34.80;;;2.50;99.90;;;;;;5092028;28;20469;-71
2023/03/09 02:14:10;;;;;;;47.40;33.17;;;2.40;99.90;;;;;;5089317;28;20477;-70
2023/03/09 02:16:36;;;;;;;59.50;31.97;;;2.50;99.90;;;;;;5093507;28;20519;-71
2023/03/09 02:19:05;;;;;;;53.23;35.30;;;2.50;99.90;;;;;;5090566;28;20485;-71
2023/03/09 02:21:39;;;;;;;56.57;34.47;;;2.50;99.90;;;;;;5099326;28;20455;-71
2023/03/09 02:24:12;;;;;;;56.73;34.70;;;2.60;99.90;;;;;;5098363;28;20461;-71
2023/03/09 02:26:43;;;;;;;56.87;34.87;;;2.60;99.90;;;;;;5094582;28;20458;-71
2023/03/09 02:29:11;;;;;;;66.83;35.20;;;2.50;99.90;;;;;;5091439;28;21117;-70
2023/03/09 02:31:39;;;;;;;54.40;36.40;;;2.40;99.90;;;;;;5090219;28;20453;-70
2023/03/09 02:34:06;;;;;;;65.47;36.80;;;2.40;99.90;;;;;;5087508;28;20482;-71
2023/03/09 02:36:32;;;;;;;57.57;34.03;;;2.40;99.90;;;;;;5089698;28;20463;-72
2023/03/09 02:39:05;;;;;;;57.83;33.90;;;2.40;99.90;;;;;;5085511;28;20482;-71
2023/03/09 02:41:32;;;;;;;71.00;38.20;;;2.40;99.90;;;;;;5092703;28;20987;-70
2023/03/09 02:44:00;;;;;;;45.27;32.90;;;2.40;99.90;;;;;;5094047;28;20977;-71
2023/03/09 02:46:29;;;;;;;54.03;31.13;;;2.30;99.90;;;;;;5094632;28;20477;-72
2023/03/09 02:48:56;;;;;;;61.73;36.50;;;2.30;99.90;;;;;;5094510;28;20664;-72
2023/03/09 02:51:23;;;;;;;53.30;33.97;;;2.30;99.90;;;;;;5095799;28;20965;-70
2023/03/09 02:53:49;;;;;;;56.00;31.10;;;2.20;99.90;;;;;;5089415;28;20855;-71
2023/03/09 02:56:16;;;;;;;71.27;35.87;;;2.20;99.90;;;;;;5087056;28;20488;-72
2023/03/09 02:58:43;;;;;;;67.57;36.93;;;2.30;99.90;;;;;;5094845;28;20555;-71
2023/03/09 03:01:10;;;;;;;73.03;36.70;;;2.30;99.90;;;;;;5090261;28;20539;-72
2023/03/09 03:03:39;;;;;;;69.37;39.20;;;2.40;99.90;;;;;;5098340;28;21109;-71
2023/03/09 03:06:06;;;;;;;66.70;38.97;;;2.40;99.90;;;;;;5094515;28;20514;-71
2023/03/09 03:08:35;;;;;;;56.07;36.30;;;2.30;99.90;;;;;;5090958;28;20453;-71
2023/03/09 03:11:02;;;;;;;85.60;41.67;;;2.40;99.90;;;;;;5086815;28;20463;-71
2023/03/09 03:13:29;;;;;;;89.13;40.93;;;2.30;99.90;;;;;;5088030;28;20458;-71
2023/03/09 03:16:00;;;;;;;74.03;42.10;;;2.40;99.90;;;;;;5089766;28;20649;-69
2023/03/09 03:18:26;;;;;;;87.43;45.10;;;2.40;99.90;;;;;;5096631;28;20488;-70
2023/03/09 03:20:55;;;;;;;79.40;41.13;;;2.40;99.90;;;;;;5089111;28;20466;-70
2023/03/09 03:23:22;;;;;;;70.30;44.90;;;2.50;99.90;;;;;;5086252;28;20522;-71
2023/03/09 03:25:49;;;;;;;79.50;41.83;;;2.50;99.90;;;;;;5085590;28;20952;-70
2023/03/09 03:28:17;;;;;;;73.70;40.57;;;2.60;99.90;;;;;;5084415;28;20931;-71
2023/03/09 03:30:50;;;;;;;100.60;44.07;;;2.50;99.90;;;;;;5097499;28;20986;-70
2023/03/09 03:33:18;;;;;;;121.77;41.57;;;2.60;99.90;;;;;;5094873;28;20457;-71
2023/03/09 03:35:45;;;;;;;104.37;44.53;;;2.50;99.90;;;;;;5091409;28;20466;-71
2023/03/09 03:38:14;;;;;;;86.50;41.77;;;2.50;99.90;;;;;;5095512;28;20907;-71
2023/03/09 03:40:41;;;;;;;110.47;45.70;;;2.40;99.90;;;;;;5093124;28;20871;-70
2023/03/09 03:43:08;;;;;;;95.40;45.37;;;2.40;99.90;;;;;;5088372;28;20489;-70
2023/03/09 03:45:35;;;;;;;87.77;43.30;;;2.50;99.90;;;;;;5092290;28;20488;-71
2023/03/09 03:48:02;;;;;;;95.33;44.70;;;2.50;99.90;;;;;;5085918;28;20477;-71
2023/03/09 03:50:29;;;;;;;115.60;48.30;;;2.50;99.90;;;;;;5094102;28;20465;-71
2023/03/09 03:52:56;;;;;;;132.93;51.17;;;2.50;99.90;;;;;;5089917;28;20506;-71
2023/03/09 03:55:24;;;;;;;118.87;44.10;;;2.40;99.90;;;;;;5093006;28;20503;-69
2023/03/09 03:57:51;;;;;;;144.57;49.03;;;2.50;99.90;;;;;;5089909;28;20516;-71
2023/03/09 04:00:19;;;;;;;166.73;49.60;;;2.40;99.90;;;;;;5092473;28;20860;-71
2023/03/09 04:02:47;;;;;;;110.80;47.37;;;2.40;99.90;;;;;;5091728;28;20465;-70
2023/03/09 04:05:13;;;;;;;124.23;50.13;;;2.30;99.90;;;;;;5091605;28;20618;-71
2023/03/09 04:07:41;;;;;;;129.37;52.47;;;2.30;99.90;;;;;;5098660;28;20461;-70
2023/03/09 04:10:09;;;;;;;112.30;49.83;;;2.40;99.90;;;;;;5094644;28;20475;-71
2023/03/09 04:12:37;;;;;;;170.60;50.80;;;2.40;99.90;;;;;;5093718;28;20826;-71
2023/03/09 04:15:06;;;;;;;185.03;54.80;;;2.30;99.90;;;;;;5094219;28;20450;-71
2023/03/09 04:17:33;;;;;;;149.23;50.13;;;2.30;99.90;;;;;;5093083;28;20627;-71
2023/03/09 04:20:00;;;;;;;140.33;51.27;;;2.40;99.90;;;;;;5095908;28;20476;-70
2023/03/09 04:22:27;;;;;;;164.00;49.50;;;2.50;99.90;;;;;;5095669;28;20836;-70
2023/03/09 04:24:55;;;;;;;210.10;50.57;;;2.50;99.90;;;;;;5091137;28;20461;-71
2023/03/09 04:27:22;;;;;;;178.53;49.57;;;2.50;99.90;;;;;;5097049;28;20805;-71
2023/03/09 04:29:50;;;;;;;233.10;53.90;;;2.50;99.90;;;;;;5098982;28;20543;-71
2023/03/09 04:32:18;;;;;;;322.87;61.97;;;2.40;99.90;;;;;;5094164;28;20993;-72
2023/03/09 04:34:45;;;;;;;249.97;53.70;;;2.40;99.90;;;;;;5101994;28;20457;-72
2023/03/09 04:37:12;;;;;;;249.90;54.43;;;2.50;99.90;;;;;;5097469;28;20876;-72
2023/03/09 04:39:39;;;;;;;277.90;52.27;;;2.40;99.90;;;;;;5094273;28;20553;-72
2023/03/09 04:42:08;;;;;;;124.13;46.83;;;2.40;99.90;;;;;;5093661;28;20494;-72
2023/03/09 04:44:34;;;;;;;122.20;44.87;;;2.60;99.90;;;;;;5097657;28;20553;-72
2023/03/09 04:47:03;;;;;;;121.90;46.37;;;2.60;99.90;;;;;;5092768;28;20798;-72
2023/03/09 04:49:30;;;;;;;100.77;39.50;;;2.60;99.90;;;;;;5097999;28;20956;-71
2023/03/09 04:51:57;;;;;;;81.37;42.00;;;2.50;99.90;;;;;;5090856;28;20481;-71
2023/03/09 04:54:24;;;;;;;80.00;42.00;;;2.50;99.90;;;;;;5089792;28;20461;-72
2023/03/09 04:56:51;;;;;;;73.57;39.03;;;2.50;99.90;;;;;;5096798;28;21016;-71
2023/03/09 04:59:17;;;;;;;83.73;39.87;;;2.50;99.90;;;;;;5094014;28;20496;-72
2023/03/09 05:01:44;;;;;;;77.90;39.00;;;2.40;99.90;;;;;;5091419;28;20446;-72
2023/03/09 05:04:13;;;;;;;72.97;38.70;;;2.40;99.90;;;;;;5096435;28;20951;-72
2023/03/09 05:06:40;;;;;;;68.53;37.57;;;2.40;99.90;;;;;;5096881;28;20468;-71
2023/03/09 05:09:07;;;;;;;80.30;40.23;;;2.50;99.90;;;;;;5089484;28;20987;-71
2023/03/09 05:11:34;;;;;;;64.10;38.53;;;2.40;99.90;;;;;;5094968;28;20852;-72
2023/03/09 05:14:01;;;;;;;63.60;36.23;;;2.50;99.90;;;;;;5090043;28;20459;-71
2023/03/09 05:16:28;;;;;;;65.67;39.73;;;2.60;99.90;;;;;;5090975;28;20469;-72
2023/03/09 05:18:55;;;;;;;65.17;36.57;;;2.60;99.90;;;;;;5095263;28;20489;-72
2023/03/09 05:21:23;;;;;;;62.53;36.77;;;2.60;99.90;;;;;;5089377;28;20887;-72
2023/03/09 05:23:50;;;;;;;70.17;40.87;;;2.60;99.90;;;;;;5090916;28;20850;-72
2023/03/09 05:26:17;;;;;;;56.80;37.07;;;2.70;99.90;;;;;;5091582;28;20454;-72
2023/03/09 05:28:44;;;;;;;72.07;37.47;;;2.70;99.90;;;;;;5096907;28;20458;-72
2023/03/09 05:31:13;;;;;;;62.10;38.60;;;2.70;99.90;;;;;;5090812;28;20861;-72
2023/03/09 05:33:40;;;;;;;58.10;37.30;;;2.70;99.90;;;;;;5094456;28;20468;-72
2023/03/09 05:36:16;;;;;;;71.33;39.80;;;2.60;99.90;;;;;;5093972;28;20485;-72
2023/03/09 05:38:44;;;;;;;73.70;40.23;;;2.60;99.90;;;;;;5085571;28;20488;-72
2023/03/09 05:41:11;;;;;;;66.40;38.07;;;2.60;99.90;;;;;;5088653;28;20473;-72
2023/03/09 05:43:41;;;;;;;63.77;37.47;;;2.70;99.90;;;;;;5098750;28;20483;-72
2023/03/09 05:46:10;;;;;;;58.27;37.13;;;2.70;99.90;;;;;;5092521;28;20839;-71
2023/03/09 05:48:37;;;;;;;70.00;39.47;;;2.70;99.90;;;;;;5089304;28;20545;-72
2023/03/09 05:51:05;;;;;;;59.20;39.17;;;2.70;99.90;;;;;;5095010;28;20465;-72
2023/03/09 05:53:32;;;;;;;58.13;35.30;;;2.70;99.90;;;;;;5095239;28;20841;-72
2023/03/09 05:56:00;;;;;;;63.93;38.80;;;2.70;99.90;;;;;;5096699;28;20485;-71
2023/03/09 05:58:29;;;;;;;63.63;39.17;;;2.70;99.90;;;;;;5087167;28;21054;-72
2023/03/09 06:00:56;;;;;;;65.10;38.00;;;2.70;99.90;;;;;;5088115;28;20995;-71
2023/03/09 06:03:24;;;;;;;57.07;36.47;;;2.60;99.90;;;;;;5088384;28;20458;-71
2023/03/09 06:05:59;;;;;;;53.80;33.53;;;2.50;99.90;;;;;;5092268;28;20588;-71
2023/03/09 06:08:27;;;;;;;57.17;34.27;;;2.40;99.90;;;;;;5097703;28;20468;-71
2023/03/09 06:10:54;;;;;;;67.17;37.57;;;2.40;99.90;;;;;;5093531;28;20481;-71
2023/03/09 06:13:22;;;;;;;72.20;37.60;;;2.40;99.90;;;;;;5092271;28;20462;-71
2023/03/09 06:15:48;;;;;;;58.07;35.33;;;2.30;99.90;;;;;;5092338;28;20961;-71
2023/03/09 06:18:16;;;;;;;66.73;37.50;;;2.50;99.90;;;;;;5095270;28;20553;-71
2023/03/09 06:20:43;;;;;;;56.10;35.33;;;2.50;99.90;;;;;;5094744;28;20499;-72
2023/03/09 06:23:10;;;;;;;58.73;34.53;;;2.50;99.90;;;;;;5091049;28;20457;-71
2023/03/09 06:25:37;;;;;;;54.40;35.27;;;2.50;99.90;;;;;;5088653;28;20457;-71
2023/03/09 06:28:05;;;;;;;65.90;35.30;;;2.40;99.90;;;;;;5089718;28;20459;-71
2023/03/09 06:30:34;;;;;;;72.17;38.00;;;2.50;99.90;;;;;;5092666;28;20596;-70
2023/03/09 06:33:01;;;;;;;68.47;37.20;;;2.50;99.90;;;;;;5090383;28;20515;-70
2023/03/09 06:35:28;;;;;;;56.27;37.73;;;2.50;99.90;;;;;;5093158;28;20561;-72
2023/03/09 06:37:54;;;;;;;62.30;37.75;;;2.60;99.90;;;;;;5087046;28;20489;-71
2023/03/09 06:40:21;;;;;;;64.50;36.83;;;2.70;99.90;;;;;;5088558;28;20872;-72
2023/03/09 06:42:48;;;;;;;55.70;36.00;;;2.70;99.90;;;;;;5093545;28;20495;-71
2023/03/09 06:45:15;;;;;;;58.47;36.73;;;2.80;99.90;;;;;;5086616;28;20485;-71
2023/03/09 06:47:43;;;;;;;60.03;37.03;;;2.80;99.90;;;;;;5094353;28;20927;-71
2023/03/09 06:50:11;;;;;;;53.60;37.40;;;2.80;99.90;;;;;;5087837;28;20469;-72
2023/03/09 06:52:38;;;;;;;56.63;38.27;;;2.80;99.90;;;;;;5087781;28;20518;-71
2023/03/09 06:55:06;;;;;;;58.70;37.80;;;2.80;99.90;;;;;;5088625;28;21000;-71
2023/03/09 06:57:33;;;;;;;59.23;38.03;;;3.00;99.90;;;;;;5091652;28;20458;-71
2023/03/09 07:00:00;;;;;;;62.43;38.57;;;3.10;99.90;;;;;;5094530;28;20485;-71
2023/03/09 07:02:27;;;;;;;56.93;39.40;;;3.20;99.90;;;;;;5093849;28;20458;-72
2023/03/09 07:04:55;;;;;;;54.13;38.20;;;3.40;99.90;;;;;;5090586;28;20963;-70
2023/03/09 07:07:22;;;;;;;60.40;38.50;;;3.50;99.90;;;;;;5088652;28;20565;-71
2023/03/09 07:09:50;;;;;;;57.73;39.27;;;3.60;99.90;;;;;;5089932;28;20469;-71
2023/03/09 07:12:17;;;;;;;62.50;38.87;;;3.60;99.90;;;;;;5098244;28;20815;-71
2023/03/09 07:14:44;;;;;;;49.83;38.73;;;3.60;99.90;;;;;;5095195;28;20459;-71
2023/03/09 07:17:13;;;;;;;53.27;37.20;;;3.70;99.90;;;;;;5089405;28;20491;-72
2023/03/09 07:19:41;;;;;;;54.27;37.20;;;3.80;99.90;;;;;;5086415;28;20505;-71
2023/03/09 07:22:10;;;;;;;59.10;38.03;;;3.80;99.90;;;;;;5091377;28;20866;-70
2023/03/09 07:24:38;;;;;;;50.70;36.10;;;3.70;99.90;;;;;;5095202;28;20465;-72
2023/03/09 07:27:08;;;;;;;54.00;36.30;;;3.70;99.90;;;;;;5093575;28;20459;-71
2023/03/09 07:29:35;;;;;;;56.43;35.83;;;3.70;99.90;;;;;;5090004;28;20491;-71
2023/03/09 07:32:02;;;;;;;56.00;36.33;;;3.80;99.90;;;;;;5091944;28;20951;-71
2023/03/09 07:34:32;;;;;;;52.67;37.17;;;3.80;99.90;;;;;;5091800;28;20493;-72
2023/03/09 07:36:58;;;;;;;51.90;37.50;;;3.90;99.90;;;;;;5085254;28;21024;-70
2023/03/09 07:39:27;;;;;;;59.10;37.33;;;4.00;99.90;;;;;;5098644;28;21018;-71
2023/03/09 07:41:54;;;;;;;62.13;38.00;;;3.90;99.90;;;;;;5103548;28;20486;-70
2023/03/09 07:44:21;;;;;;;62.43;35.83;;;3.80;99.90;;;;;;5091846;28;21344;-71
2023/03/09 07:46:48;;;;;;;62.93;39.57;;;3.90;99.90;;;;;;5088300;28;20472;-71
2023/03/09 07:49:15;;;;;;;53.40;35.33;;;4.00;99.90;;;;;;5086609;28;20631;-71
2023/03/09 07:51:42;;;;;;;46.77;35.63;;;3.90;99.90;;;;;;5091268;28;20938;-71
2023/03/09 07:54:10;;;;;;;54.43;36.87;;;4.10;99.90;;;;;;5092391;28;20825;-72
2023/03/09 07:56:38;;;;;;;53.73;35.47;;;4.20;99.90;;;;;;5087605;28;20464;-71
2023/03/09 07:59:05;;;;;;;51.10;35.20;;;3.90;99.90;;;;;;5093413;28;20490;-71
2023/03/09 08:01:32;;;;;;;60.10;36.50;;;3.80;99.90;;;;;;5092719;28;20472;-71
2023/03/09 08:03:59;;;;;;;49.87;34.60;;;3.80;99.90;;;;;;5092409;28;20526;-72
2023/03/09 08:06:26;;;;;;;54.07;34.80;;;3.90;99.90;;;;;;5087748;28;20462;-71
2023/03/09 08:08:54;;;;;;;55.97;36.03;;;3.80;99.90;;;;;;5086622;28;20962;-71
2023/03/09 08:11:21;;;;;;;56.17;35.60;;;4.00;99.90;;;;;;5092340;28;20887;-71
2023/03/09 08:13:49;;;;;;;46.03;33.30;;;4.00;99.90;;;;;;5092399;28;20469;-72
2023/03/09 08:16:16;;;;;;;52.43;34.00;;;4.00;99.90;;;;;;5088818;28;20466;-72
2023/03/09 08:18:43;;;;;;;48.73;34.73;;;4.20;99.90;;;;;;5092551;28;20876;-72
2023/03/09 08:21:11;;;;;;;48.17;34.70;;;4.30;99.90;;;;;;5088380;28;20833;-71
2023/03/09 08:23:40;;;;;;;41.73;32.67;;;4.60;99.90;;;;;;5085112;28;20472;-71
2023/03/09 08:26:07;;;;;;;40.60;31.20;;;4.60;99.90;;;;;;5091345;28;20603;-71
2023/03/09 08:28:34;;;;;;;46.17;32.97;;;4.80;99.90;;;;;;5095709;28;20639;-71
2023/03/09 08:31:03;;;;;;;40.67;33.40;;;4.80;99.90;;;;;;5092111;28;20983;-71
2023/03/09 08:33:30;;;;;;;42.70;33.50;;;4.80;99.90;;;;;;5089284;28;20672;-71
2023/03/09 08:35:57;;;;;;;50.37;34.87;;;4.60;99.90;;;;;;5086746;28;20461;-70
2023/03/09 08:38:24;;;;;;;45.17;33.10;;;4.40;99.90;;;;;;5082421;28;20517;-70
2023/03/09 08:40:51;;;;;;;55.37;36.00;;;4.50;99.90;;;;;;5089655;28;20623;-71
2023/03/09 08:43:18;;;;;;;54.63;37.23;;;4.50;99.90;;;;;;5094561;28;20494;-71
2023/03/09 08:45:44;;;;;;;56.90;36.40;;;4.50;99.90;;;;;;5093372;28;20468;-70
2023/03/09 08:48:12;;;;;;;50.97;35.33;;;4.50;99.90;;;;;;5088346;28;20483;-70
2023/03/09 08:50:40;;;;;;;56.03;35.03;;;4.60;99.90;;;;;;5088240;28;21010;-70
2023/03/09 08:53:07;;;;;;;56.90;35.37;;;4.60;99.90;;;;;;5094504;28;20522;-70
2023/03/09 08:55:34;;;;;;;53.70;35.57;;;4.80;99.90;;;;;;5095000;28;20953;-70
2023/03/09 08:58:01;;;;;;;51.77;35.90;;;4.90;99.90;;;;;;5090707;28;20824;-70
2023/03/09 09:00:27;;;;;;;53.93;36.83;;;4.80;99.90;;;;;;5086943;28;20489;-71
2023/03/09 09:02:55;;;;;;;60.40;37.33;;;4.70;99.90;;;;;;5088773;28;20477;-70
2023/03/09 09:05:23;;;;;;;62.20;37.60;;;4.60;99.90;;;;;;5084799;28;20471;-70
2023/03/09 09:07:50;;;;;;;52.40;37.43;;;4.60;99.90;;;;;;5088574;28;20454;-71
2023/03/09 09:10:18;;;;;;;63.30;39.53;;;4.60;99.90;;;;;;5088696;28;21112;-71
2023/03/09 09:12:44;;;;;;;70.23;40.10;;;4.50;99.90;;;;;;5088951;28;20918;-69
2023/03/09 09:15:13;;;;;;;61.17;40.90;;;4.50;99.90;;;;;;5090658;28;20458;-70
2023/03/09 09:17:40;;;;;;;57.23;37.63;;;4.50;99.90;;;;;;5088129;28;20463;-70
2023/03/09 09:20:09;;;;;;;59.33;37.47;;;4.70;99.90;;;;;;5087088;28;20485;-70
2023/03/09 09:22:40;;;;;;;48.60;36.17;;;4.60;99.90;;;;;;5090137;28;21036;-72
2023/03/09 09:25:08;;;;;;;60.73;37.30;;;4.60;99.90;;;;;;5089453;28;20462;-71
2023/03/09 09:27:35;;;;;;;48.30;35.43;;;4.60;99.90;;;;;;5084505;28;20469;-71
2023/03/09 09:30:03;;;;;;;46.73;35.90;;;4.80;99.90;;;;;;5089139;28;20579;-70
2023/03/09 09:32:29;;;;;;;44.33;33.90;;;5.30;99.90;;;;;;5086532;28;20498;-70
2023/03/09 09:34:57;;;;;;;41.00;33.10;;;5.50;99.90;;;;;;5088471;28;20457;-70
2023/03/09 09:37:24;;;;;;;47.37;35.60;;;5.10;99.90;;;;;;5095713;28;20469;-71
2023/03/09 09:39:52;;;;;;;50.97;37.37;;;5.10;99.90;;;;;;5093143;28;20771;-70
2023/03/09 09:42:25;;;;;;;54.60;35.97;;;5.20;99.90;;;;;;5087846;28;20960;-71
2023/03/09 09:44:53;;;;;;;53.40;36.33;;;5.30;99.90;;;;;;5088120;28;21266;-70
2023/03/09 09:47:22;;;;;;;53.33;36.93;;;5.40;99.90;;;;;;5094828;28;20461;-70
2023/03/09 09:49:51;;;;;;;51.97;36.20;;;5.30;99.90;;;;;;5085073;28;20454;-70
2023/03/09 09:52:35;;;;;;;52.63;36.27;;;5.30;99.90;;;;;;5087202;28;20565;-71
2023/03/09 09:55:13;;;;;;;57.50;36.10;;;5.40;99.90;;;;;;5089483;28;20468;-71
2023/03/09 09:57:42;;;;;;;55.00;35.97;;;5.30;99.90;;;;;;5088353;28;20482;-70
2023/03/09 10:00:15;;;;;;;57.80;37.27;;;5.40;99.90;;;;;;5085880;28;20490;-69
2023/03/09 10:02:54;;;;;;;54.23;37.30;;;5.10;99.90;;;;;;5086718;28;20467;-70
2023/03/09 10:05:27;;;;;;;53.73;35.73;;;5.30;99.90;;;;;;5089994;28;20541;-71
2023/03/09 10:07:56;;;;;;;56.30;35.53;;;5.50;99.90;;;;;;5091059;28;20475;-70
2023/03/09 10:10:29;;;;;;;47.67;36.60;;;5.60;99.90;;;;;;5090094;28;20951;-72
2023/03/09 10:12:59;;;;;;;49.37;33.73;;;5.70;99.90;;;;;;5085836;28;20470;-72
2023/03/09 10:15:29;;;;;;;47.37;33.93;;;5.60;99.90;;;;;;5087680;28;20457;-71
2023/03/09 10:18:01;;;;;;;47.60;33.17;;;5.70;99.90;;;;;;5087178;28;21159;-71
2023/03/09 10:20:33;;;;;;;47.57;34.30;;;5.70;99.90;;;;;;5091178;28;20477;-70
2023/03/09 10:23:00;;;;;;;51.93;34.40;;;5.70;99.90;;;;;;5089243;28;20469;-71
2023/03/09 10:25:32;;;;;;;57.07;35.17;;;5.60;99.90;;;;;;5084241;28;20462;-70
2023/03/09 10:28:05;;;;;;;44.90;33.83;;;5.70;99.90;;;;;;5078556;28;20466;-70
2023/03/09 10:30:41;;;;;;;45.57;33.60;;;5.70;99.90;;;;;;5084588;28;20463;-71
2023/03/09 10:33:17;;;;;;;52.20;34.10;;;5.70;99.90;;;;;;5082252;28;20820;-72
2023/03/09 10:35:46;;;;;;;50.13;33.40;;;5.60;99.90;;;;;;5091942;28;20792;-72
2023/03/09 10:38:14;;;;;;;49.73;35.13;;;5.80;99.90;;;;;;5091587;28;20468;-72
2023/03/09 10:40:47;;;;;;;49.67;33.30;;;5.80;99.90;;;;;;5089475;28;20477;-71
2023/03/09 10:43:23;;;;;;;48.10;36.20;;;5.80;99.90;;;;;;5083938;28;21144;-71
2023/03/09 10:45:49;;;;;;;48.30;35.00;;;5.80;99.90;;;;;;5087132;28;20560;-72
2023/03/09 10:48:22;;;;;;;43.73;34.10;;;6.00;99.90;;;;;;5092884;28;20457;-71
2023/03/09 10:50:58;;;;;;;43.73;35.03;;;6.00;99.90;;;;;;5084665;28;20561;-70
2023/03/09 10:53:31;;;;;;;52.23;35.40;;;6.20;99.90;;;;;;5092765;28;20464;-71
2023/03/09 10:56:13;;;;;;;50.33;36.00;;;6.20;99.90;;;;;;5089008;28;20459;-72
2023/03/09 10:58:40;;;;;;;50.50;36.20;;;6.50;99.90;;;;;;5083995;28;20457;-72
2023/03/09 11:01:21;;;;;;;45.33;33.50;;;6.50;99.90;;;;;;5088252;28;20910;-72
2023/03/09 11:03:48;;;;;;;48.47;36.00;;;6.70;99.90;;;;;;5097684;28;20523;-71
2023/03/09 11:06:38;;;;;;;48.93;35.93;;;6.80;99.90;;;;;;5092275;28;20458;-71
2023/03/09 11:09:12;;;;;;;48.33;34.80;;;7.10;99.90;;;;;;5069447;28;20870;-70
2023/03/09 11:11:41;;;;;;;53.10;36.97;;;7.00;99.90;;;;;;5086659;28;20567;-72
2023/03/09 11:14:22;;;;;;;47.17;35.47;;;6.70;99.90;;;;;;5086499;28;20473;-70
2023/03/09 11:16:51;;;;;;;50.80;34.70;;;6.70;99.90;;;;;;5089594;28;20465;-71
2023/03/09 11:19:19;;;;;;;49.80;36.00;;;6.70;99.90;;;;;;5095869;28;20474;-71
2023/03/09 11:21:52;;;;;;;46.67;34.77;;;6.90;99.90;;;;;;5097637;28;20488;-72
2023/03/09 11:24:19;;;;;;;52.50;35.90;;;7.00;99.90;;;;;;5089528;28;20669;-70
2023/03/09 11:26:54;;;;;;;41.20;31.60;;;7.30;99.90;;;;;;5089863;28;20558;-71
2023/03/09 11:29:28;;;;;;;43.37;33.97;;;7.40;99.90;;;;;;5089117;28;20562;-71
2023/03/09 11:31:57;;;;;;;42.97;34.40;;;7.60;99.90;;;;;;5090920;28;20460;-71
2023/03/09 11:34:28;;;;;;;42.23;33.37;;;7.30;99.90;;;;;;5084835;28;20461;-71
2023/03/09 11:37:00;;;;;;;45.33;34.77;;;7.30;99.90;;;;;;5094610;28;20833;-70
2023/03/09 11:39:33;;;;;;;47.40;34.80;;;7.30;99.90;;;;;;5091682;28;20616;-70
2023/03/09 11:42:04;;;;;;;60.63;39.43;;;7.10;99.90;;;;;;5096813;28;20662;-71
2023/03/09 11:44:35;;;;;;;44.50;35.27;;;7.30;99.90;;;;;;5093476;28;20468;-70
2023/03/09 11:47:07;;;;;;;50.13;34.40;;;7.30;99.90;;;;;;5090060;28;20485;-70
2023/03/09 11:49:36;;;;;;;59.17;34.63;;;7.30;99.90;;;;;;5094388;28;20462;-71
2023/03/09 11:52:07;;;;;;;48.97;35.60;;;7.20;99.90;;;;;;5096323;28;20468;-70
2023/03/09 11:54:38;;;;;;;46.67;35.00;;;7.20;99.90;;;;;;5093479;28;21018;-71
2023/03/09 11:57:12;;;;;;;48.77;36.50;;;7.30;99.90;;;;;;5088869;28;20561;-70
2023/03/09 11:59:45;;;;;;;48.40;35.67;;;7.50;99.90;;;;;;5085593;28;21001;-70
2023/03/09 12:02:18;;;;;;;46.80;37.40;;;7.30;99.90;;;;;;5087678;28;20467;-70
2023/03/09 12:04:48;;;;;;;49.63;36.63;;;7.30;99.90;;;;;;5091274;28;20930;-69
2023/03/09 12:07:21;;;;;;;48.37;36.23;;;7.40;99.90;;;;;;5090569;28;20921;-71
2023/03/09 12:09:55;;;;;;;50.90;36.50;;;7.30;99.90;;;;;;5091825;28;20500;-69
2023/03/09 12:12:32;;;;;;;50.00;36.50;;;7.40;99.90;;;;;;5088125;28;20457;-70
2023/03/09 12:15:04;;;;;;;54.80;38.00;;;7.20;99.90;;;;;;5090776;28;20458;-68
2023/03/09 12:17:38;;;;;;;56.70;39.53;;;7.10;99.90;;;;;;5090668;28;20861;-68
2023/03/09 12:20:05;;;;;;;52.53;39.63;;;7.20;99.90;;;;;;5093122;28;20495;-69
2023/03/09 12:22:37;;;;;;;59.50;41.53;;;7.20;99.90;;;;;;5090052;28;20505;-70
2023/03/09 12:25:06;;;;;;;58.57;41.40;;;7.30;99.90;;;;;;5097138;28;20461;-70
2023/03/09 12:27:35;;;;;;;57.43;39.73;;;7.30;99.90;;;;;;5094816;28;20943;-69
2023/03/09 12:30:22;;;;;;;66.90;39.27;;;7.40;99.90;;;;;;5093724;28;20491;-70
2023/03/09 12:32:49;;;;;;;57.77;40.43;;;7.40;99.90;;;;;;5093695;28;20940;-70
2023/03/09 12:35:51;;;;;;;56.37;38.67;;;7.70;99.90;;;;;;5099489;28;20802;-70
2023/03/09 12:38:21;;;;;;;62.63;41.70;;;7.70;99.90;;;;;;5097499;28;20464;-70
2023/03/09 12:40:50;;;;;;;61.60;40.63;;;7.70;99.90;;;;;;5087754;28;20481;-71
2023/03/09 12:43:52;;;;;;;62.60;39.33;;;7.70;99.90;;;;;;5089518;28;20482;-70
2023/03/09 12:47:00;;;;;;;59.70;38.70;;;7.70;99.90;;;;;;5092210;28;20538;-70